sensor_id;sensor_type;location;lat;lon;timestamp;temperature;humidity
16417;DHT22;8317;52.186;5.688;2022-12-29T00:00:19;11.30;99.90
16417;DHT22;8317;52.186;5.688;2022-12-29T00:02:46;11.30;99.90
16417;DHT22;8317;52.186;5.688;2022-12-29T00:05:13;11.30;99.90
16417;DHT22;8317;52.186;5.688;2022-12-29T00:07:40;11.30;99.90
16417;DHT22;8317;52.186;5.688;2022-12-29T00:10:07;11.40;99.90
16417;DHT22;8317;52.186;5.688;2022-12-29T00:12:36;11.40;99.90
16417;DHT22;8317;52.186;5.688;2022-12-29T00:15:20;11.50;99.90
16417;DHT22;8317;52.186;5.688;2022-12-29T00:18:06;11.50;99.90
16417;DHT22;8317;52.186;5.688;2022-12-29T00:20:33;11.60;99.90
16417;DHT22;8317;52.186;5.688;2022-12-29T00:23:17;11.60;99.90
16417;DHT22;8317;52.186;5.688;2022-12-29T00:26:03;11.60;99.90
16417;DHT22;8317;52.186;5.688;2022-12-29T00:28:50;11.60;99.90
16417;DHT22;8317;52.186;5.688;2022-12-29T00:31:34;11.60;99.90
16417;DHT22;8317;52.186;5.688;2022-12-29T00:34:18;11.60;99.90
16417;DHT22;8317;52.186;5.688;2022-12-29T00:37:02;11.50;99.90
16417;DHT22;8317;52.186;5.688;2022-12-29T00:39:29;11.60;99.90
16417;DHT22;8317;52.186;5.688;2022-12-29T00:42:13;11.60;99.90
16417;DHT22;8317;52.186;5.688;2022-12-29T00:44:59;11.60;99.90
16417;DHT22;8317;52.186;5.688;2022-12-29T00:47:26;11.70;99.90
16417;DHT22;8317;52.186;5.688;2022-12-29T00:49:53;11.60;99.90
16417;DHT22;8317;52.186;5.688;2022-12-29T00:52:19;11.70;99.90
16417;DHT22;8317;52.186;5.688;2022-12-29T00:54:45;11.60;99.90
16417;DHT22;8317;52.186;5.688;2022-12-29T00:57:12;11.60;99.90
16417;DHT22;8317;52.186;5.688;2022-12-29T00:59:41;11.60;99.90
16417;DHT22;8317;52.186;5.688;2022-12-29T01:02:10;11.60;99.90
16417;DHT22;8317;52.186;5.688;2022-12-29T01:04:37;11.70;99.90
16417;DHT22;8317;52.186;5.688;2022-12-29T01:07:04;11.70;99.90
16417;DHT22;8317;52.186;5.688;2022-12-29T01:09:31;11.70;99.90
16417;DHT22;8317;52.186;5.688;2022-12-29T01:12:16;11.70;99.90
16417;DHT22;8317;52.186;5.688;2022-12-29T01:15:04;11.60;99.90
16417;DHT22;8317;52.186;5.688;2022-12-29T01:17:32;11.60;99.90
16417;DHT22;8317;52.186;5.688;2022-12-29T01:19:59;11.60;99.90
16417;DHT22;8317;52.186;5.688;2022-12-29T01:22:26;11.60;99.90
16417;DHT22;8317;52.186;5.688;2022-12-29T01:24:53;11.70;99.90
16417;DHT22;8317;52.186;5.688;2022-12-29T01:27:20;11.70;99.90
16417;DHT22;8317;52.186;5.688;2022-12-29T01:29:46;11.70;99.90
16417;DHT22;8317;52.186;5.688;2022-12-29T01:32:13;11.60;99.90
16417;DHT22;8317;52.186;5.688;2022-12-29T01:34:41;11.50;99.90
16417;DHT22;8317;52.186;5.688;2022-12-29T01:37:08;11.40;99.90
16417;DHT22;8317;52.186;5.688;2022-12-29T01:39:35;11.30;99.90
16417;DHT22;8317;52.186;5.688;2022-12-29T01:42:02;11.30;99.90
16417;DHT22;8317;52.186;5.688;2022-12-29T01:44:49;11.20;99.90
16417;DHT22;8317;52.186;5.688;2022-12-29T01:47:22;11.20;99.90
16417;DHT22;8317;52.186;5.688;2022-12-29T01:49:55;11.10;99.90
16417;DHT22;8317;52.186;5.688;2022-12-29T01:52:24;11.10;99.90
16417;DHT22;8317;52.186;5.688;2022-12-29T01:54:55;11.10;99.90
16417;DHT22;8317;52.186;5.688;2022-12-29T01:57:27;11.10;99.90
16417;DHT22;8317;52.186;5.688;2022-12-29T01:59:58;11.00;99.90
16417;DHT22;8317;52.186;5.688;2022-12-29T02:02:27;11.00;99.90
16417;DHT22;8317;52.186;5.688;2022-12-29T02:04:57;11.00;99.90
16417;DHT22;8317;52.186;5.688;2022-12-29T02:07:25;11.00;99.90
16417;DHT22;8317;52.186;5.688;2022-12-29T02:09:53;11.10;99.90
16417;DHT22;8317;52.186;5.688;2022-12-29T02:12:22;11.10;99.90
16417;DHT22;8317;52.186;5.688;2022-12-29T02:14:53;11.20;99.90
16417;DHT22;8317;52.186;5.688;2022-12-29T02:17:33;11.20;99.90
16417;DHT22;8317;52.186;5.688;2022-12-29T02:23:21;11.20;99.90
16417;DHT22;8317;52.186;5.688;2022-12-29T02:26:13;11.20;99.90
16417;DHT22;8317;52.186;5.688;2022-12-29T02:28:59;11.20;99.90
16417;DHT22;8317;52.186;5.688;2022-12-29T02:31:35;11.20;99.90
16417;DHT22;8317;52.186;5.688;2022-12-29T02:34:18;11.20;99.90
16417;DHT22;8317;52.186;5.688;2022-12-29T02:36:55;11.20;99.90
16417;DHT22;8317;52.186;5.688;2022-12-29T02:39:34;11.20;99.90
16417;DHT22;8317;52.186;5.688;2022-12-29T02:42:09;11.20;99.90
16417;DHT22;8317;52.186;5.688;2022-12-29T02:44:47;11.20;99.90
16417;DHT22;8317;52.186;5.688;2022-12-29T02:47:23;11.20;99.90
16417;DHT22;8317;52.186;5.688;2022-12-29T02:49:57;11.20;99.90
16417;DHT22;8317;52.186;5.688;2022-12-29T02:52:30;11.20;99.90
16417;DHT22;8317;52.186;5.688;2022-12-29T02:54:58;11.20;99.90
16417;DHT22;8317;52.186;5.688;2022-12-29T02:57:33;11.30;99.90
16417;DHT22;8317;52.186;5.688;2022-12-29T03:00:03;11.30;99.90
16417;DHT22;8317;52.186;5.688;2022-12-29T03:02:45;11.40;99.90
16417;DHT22;8317;52.186;5.688;2022-12-29T03:05:24;11.30;99.90
16417;DHT22;8317;52.186;5.688;2022-12-29T03:08:01;11.40;99.90
16417;DHT22;8317;52.186;5.688;2022-12-29T03:10:35;11.40;99.90
16417;DHT22;8317;52.186;5.688;2022-12-29T03:13:11;11.40;99.90
16417;DHT22;8317;52.186;5.688;2022-12-29T03:16:04;11.40;99.90
16417;DHT22;8317;52.186;5.688;2022-12-29T03:18:41;11.30;99.90
16417;DHT22;8317;52.186;5.688;2022-12-29T03:21:13;11.20;99.90
16417;DHT22;8317;52.186;5.688;2022-12-29T03:23:43;11.20;99.90
16417;DHT22;8317;52.186;5.688;2022-12-29T03:26:15;11.20;99.90
16417;DHT22;8317;52.186;5.688;2022-12-29T03:28:47;11.20;99.90
16417;DHT22;8317;52.186;5.688;2022-12-29T03:31:17;11.10;99.90
16417;DHT22;8317;52.186;5.688;2022-12-29T03:33:47;11.10;99.90
16417;DHT22;8317;52.186;5.688;2022-12-29T03:36:20;11.10;99.90
16417;DHT22;8317;52.186;5.688;2022-12-29T03:38:57;11.10;99.90
16417;DHT22;8317;52.186;5.688;2022-12-29T03:41:28;11.10;99.90
16417;DHT22;8317;52.186;5.688;2022-12-29T03:43:56;11.10;99.90
16417;DHT22;8317;52.186;5.688;2022-12-29T03:46:23;11.10;99.90
16417;DHT22;8317;52.186;5.688;2022-12-29T03:48:51;11.00;99.90
16417;DHT22;8317;52.186;5.688;2022-12-29T03:51:18;11.00;99.90
16417;DHT22;8317;52.186;5.688;2022-12-29T03:53:45;11.00;99.90
16417;DHT22;8317;52.186;5.688;2022-12-29T03:56:12;10.90;99.90
16417;DHT22;8317;52.186;5.688;2022-12-29T03:58:39;10.80;99.90
16417;DHT22;8317;52.186;5.688;2022-12-29T04:01:06;10.80;99.90
16417;DHT22;8317;52.186;5.688;2022-12-29T04:03:33;10.90;99.90
16417;DHT22;8317;52.186;5.688;2022-12-29T04:06:01;10.90;99.90
16417;DHT22;8317;52.186;5.688;2022-12-29T04:08:28;11.00;99.90
16417;DHT22;8317;52.186;5.688;2022-12-29T04:10:55;10.90;99.90
16417;DHT22;8317;52.186;5.688;2022-12-29T04:13:22;11.00;99.90
16417;DHT22;8317;52.186;5.688;2022-12-29T04:15:48;10.90;99.90
16417;DHT22;8317;52.186;5.688;2022-12-29T04:18:15;10.90;99.90
16417;DHT22;8317;52.186;5.688;2022-12-29T04:20:44;10.90;99.90
16417;DHT22;8317;52.186;5.688;2022-12-29T04:23:28;10.80;99.90
16417;DHT22;8317;52.186;5.688;2022-12-29T04:25:55;10.80;99.90
16417;DHT22;8317;52.186;5.688;2022-12-29T04:28:22;10.80;99.90
16417;DHT22;8317;52.186;5.688;2022-12-29T04:30:49;10.80;99.90
16417;DHT22;8317;52.186;5.688;2022-12-29T04:33:16;10.80;99.90
16417;DHT22;8317;52.186;5.688;2022-12-29T04:35:43;10.80;99.90
16417;DHT22;8317;52.186;5.688;2022-12-29T04:38:11;10.80;99.90
16417;DHT22;8317;52.186;5.688;2022-12-29T04:40:40;10.80;99.90
16417;DHT22;8317;52.186;5.688;2022-12-29T04:43:08;10.80;99.90
16417;DHT22;8317;52.186;5.688;2022-12-29T04:45:35;11.00;99.90
16417;DHT22;8317;52.186;5.688;2022-12-29T04:48:02;11.00;99.90
16417;DHT22;8317;52.186;5.688;2022-12-29T04:50:29;11.00;99.90
16417;DHT22;8317;52.186;5.688;2022-12-29T04:52:56;11.00;99.90
16417;DHT22;8317;52.186;5.688;2022-12-29T04:55:23;11.00;99.90
16417;DHT22;8317;52.186;5.688;2022-12-29T04:57:51;11.00;99.90
16417;DHT22;8317;52.186;5.688;2022-12-29T05:00:18;11.10;99.90
16417;DHT22;8317;52.186;5.688;2022-12-29T05:02:45;11.00;99.90
16417;DHT22;8317;52.186;5.688;2022-12-29T05:05:12;11.10;99.90
16417;DHT22;8317;52.186;5.688;2022-12-29T05:07:39;11.00;99.90
16417;DHT22;8317;52.186;5.688;2022-12-29T05:10:07;10.90;99.90
16417;DHT22;8317;52.186;5.688;2022-12-29T05:12:35;11.00;99.90
16417;DHT22;8317;52.186;5.688;2022-12-29T05:15:04;10.90;99.90
16417;DHT22;8317;52.186;5.688;2022-12-29T05:17:32;10.90;99.90
16417;DHT22;8317;52.186;5.688;2022-12-29T05:19:59;11.00;99.90
16417;DHT22;8317;52.186;5.688;2022-12-29T05:22:26;11.00;99.90
16417;DHT22;8317;52.186;5.688;2022-12-29T05:24:52;11.00;99.90
16417;DHT22;8317;52.186;5.688;2022-12-29T05:27:19;10.90;99.90
16417;DHT22;8317;52.186;5.688;2022-12-29T05:29:46;10.90;99.90
16417;DHT22;8317;52.186;5.688;2022-12-29T05:32:14;10.90;99.90
16417;DHT22;8317;52.186;5.688;2022-12-29T05:34:41;10.80;99.90
16417;DHT22;8317;52.186;5.688;2022-12-29T05:37:08;10.80;99.90
16417;DHT22;8317;52.186;5.688;2022-12-29T05:39:35;10.90;99.90
16417;DHT22;8317;52.186;5.688;2022-12-29T05:42:02;10.90;99.90
16417;DHT22;8317;52.186;5.688;2022-12-29T05:44:29;10.80;99.90
16417;DHT22;8317;52.186;5.688;2022-12-29T05:46:56;10.80;99.90
16417;DHT22;8317;52.186;5.688;2022-12-29T05:49:24;10.80;99.90
16417;DHT22;8317;52.186;5.688;2022-12-29T05:51:51;10.80;99.90
16417;DHT22;8317;52.186;5.688;2022-12-29T05:54:18;10.80;99.90
16417;DHT22;8317;52.186;5.688;2022-12-29T05:56:45;10.80;99.90
16417;DHT22;8317;52.186;5.688;2022-12-29T05:59:11;10.70;99.90
16417;DHT22;8317;52.186;5.688;2022-12-29T06:01:38;10.80;99.90
16417;DHT22;8317;52.186;5.688;2022-12-29T06:04:05;10.70;99.90
16417;DHT22;8317;52.186;5.688;2022-12-29T06:06:33;10.70;99.90
16417;DHT22;8317;52.186;5.688;2022-12-29T06:09:00;10.70;99.90
16417;DHT22;8317;52.186;5.688;2022-12-29T06:11:27;10.70;99.90
16417;DHT22;8317;52.186;5.688;2022-12-29T06:13:54;10.70;99.90
16417;DHT22;8317;52.186;5.688;2022-12-29T06:16:21;10.70;99.90
16417;DHT22;8317;52.186;5.688;2022-12-29T06:18:48;10.70;99.90
16417;DHT22;8317;52.186;5.688;2022-12-29T06:21:14;10.80;99.90
16417;DHT22;8317;52.186;5.688;2022-12-29T06:23:43;10.80;99.90
16417;DHT22;8317;52.186;5.688;2022-12-29T06:26:10;10.70;99.90
16417;DHT22;8317;52.186;5.688;2022-12-29T06:28:36;10.70;99.90
16417;DHT22;8317;52.186;5.688;2022-12-29T06:31:03;10.50;99.90
16417;DHT22;8317;52.186;5.688;2022-12-29T06:33:30;10.40;99.90
16417;DHT22;8317;52.186;5.688;2022-12-29T06:35:57;10.40;99.90
16417;DHT22;8317;52.186;5.688;2022-12-29T06:38:24;10.30;99.90
16417;DHT22;8317;52.186;5.688;2022-12-29T06:40:52;10.30;99.90
16417;DHT22;8317;52.186;5.688;2022-12-29T06:43:19;10.20;99.90
16417;DHT22;8317;52.186;5.688;2022-12-29T06:45:46;10.10;99.90
16417;DHT22;8317;52.186;5.688;2022-12-29T06:48:13;10.00;99.90
16417;DHT22;8317;52.186;5.688;2022-12-29T06:50:40;10.00;99.90
16417;DHT22;8317;52.186;5.688;2022-12-29T06:53:07;10.00;99.90
16417;DHT22;8317;52.186;5.688;2022-12-29T06:55:34;9.90;99.90
16417;DHT22;8317;52.186;5.688;2022-12-29T06:58:02;9.90;99.90
16417;DHT22;8317;52.186;5.688;2022-12-29T07:00:29;9.90;99.90
16417;DHT22;8317;52.186;5.688;2022-12-29T07:02:56;9.90;99.90
16417;DHT22;8317;52.186;5.688;2022-12-29T07:05:23;9.90;99.90
16417;DHT22;8317;52.186;5.688;2022-12-29T07:07:53;9.90;99.90
16417;DHT22;8317;52.186;5.688;2022-12-29T07:10:20;10.00;99.90
16417;DHT22;8317;52.186;5.688;2022-12-29T07:12:46;10.00;99.90
16417;DHT22;8317;52.186;5.688;2022-12-29T07:15:15;10.10;99.90
16417;DHT22;8317;52.186;5.688;2022-12-29T07:17:42;10.10;99.90
16417;DHT22;8317;52.186;5.688;2022-12-29T07:20:09;10.10;99.90
16417;DHT22;8317;52.186;5.688;2022-12-29T07:22:36;10.10;99.90
16417;DHT22;8317;52.186;5.688;2022-12-29T07:25:04;10.00;99.90
16417;DHT22;8317;52.186;5.688;2022-12-29T07:27:31;9.90;99.90
16417;DHT22;8317;52.186;5.688;2022-12-29T07:29:58;9.70;99.90
16417;DHT22;8317;52.186;5.688;2022-12-29T07:32:26;9.60;99.90
16417;DHT22;8317;52.186;5.688;2022-12-29T07:34:53;9.50;99.90
16417;DHT22;8317;52.186;5.688;2022-12-29T07:37:20;9.40;99.90
16417;DHT22;8317;52.186;5.688;2022-12-29T07:39:47;9.30;99.90
16417;DHT22;8317;52.186;5.688;2022-12-29T07:42:14;9.30;99.90
16417;DHT22;8317;52.186;5.688;2022-12-29T07:44:41;9.30;99.90
16417;DHT22;8317;52.186;5.688;2022-12-29T07:47:08;9.30;99.90
16417;DHT22;8317;52.186;5.688;2022-12-29T07:49:36;9.20;99.90
16417;DHT22;8317;52.186;5.688;2022-12-29T07:52:03;9.20;99.90
16417;DHT22;8317;52.186;5.688;2022-12-29T07:54:30;9.20;99.90
16417;DHT22;8317;52.186;5.688;2022-12-29T07:56:57;9.20;99.90
16417;DHT22;8317;52.186;5.688;2022-12-29T07:59:25;9.20;99.90
16417;DHT22;8317;52.186;5.688;2022-12-29T08:01:52;9.20;99.90
16417;DHT22;8317;52.186;5.688;2022-12-29T08:04:19;9.20;99.90
16417;DHT22;8317;52.186;5.688;2022-12-29T08:06:48;9.20;99.90
16417;DHT22;8317;52.186;5.688;2022-12-29T08:09:15;9.30;99.90
16417;DHT22;8317;52.186;5.688;2022-12-29T08:11:42;9.30;99.90
16417;DHT22;8317;52.186;5.688;2022-12-29T08:14:09;9.40;99.90
16417;DHT22;8317;52.186;5.688;2022-12-29T08:16:36;9.50;99.90
16417;DHT22;8317;52.186;5.688;2022-12-29T08:19:03;9.60;99.90
16417;DHT22;8317;52.186;5.688;2022-12-29T08:21:30;9.60;99.90
16417;DHT22;8317;52.186;5.688;2022-12-29T08:23:58;9.60;99.90
16417;DHT22;8317;52.186;5.688;2022-12-29T08:26:25;9.70;99.90
16417;DHT22;8317;52.186;5.688;2022-12-29T08:28:52;9.70;99.90
16417;DHT22;8317;52.186;5.688;2022-12-29T08:31:21;9.70;99.90
16417;DHT22;8317;52.186;5.688;2022-12-29T08:33:48;9.80;99.90
16417;DHT22;8317;52.186;5.688;2022-12-29T08:36:15;9.80;99.90
16417;DHT22;8317;52.186;5.688;2022-12-29T08:38:42;9.90;99.90
16417;DHT22;8317;52.186;5.688;2022-12-29T08:41:10;9.90;99.90
16417;DHT22;8317;52.186;5.688;2022-12-29T08:43:37;10.00;99.90
16417;DHT22;8317;52.186;5.688;2022-12-29T08:46:04;10.10;99.90
16417;DHT22;8317;52.186;5.688;2022-12-29T08:48:31;10.20;99.90
16417;DHT22;8317;52.186;5.688;2022-12-29T08:50:58;10.20;99.90
16417;DHT22;8317;52.186;5.688;2022-12-29T08:53:25;10.20;99.90
16417;DHT22;8317;52.186;5.688;2022-12-29T08:55:56;10.20;99.90
16417;DHT22;8317;52.186;5.688;2022-12-29T08:58:25;10.20;99.90
16417;DHT22;8317;52.186;5.688;2022-12-29T09:00:53;10.20;99.90
16417;DHT22;8317;52.186;5.688;2022-12-29T09:03:20;10.30;99.90
16417;DHT22;8317;52.186;5.688;2022-12-29T09:05:48;10.20;99.90
16417;DHT22;8317;52.186;5.688;2022-12-29T09:08:15;10.20;99.90
16417;DHT22;8317;52.186;5.688;2022-12-29T09:10:42;10.20;99.90
16417;DHT22;8317;52.186;5.688;2022-12-29T09:13:09;10.10;99.90
16417;DHT22;8317;52.186;5.688;2022-12-29T09:15:38;10.00;99.90
16417;DHT22;8317;52.186;5.688;2022-12-29T09:18:05;10.00;99.90
16417;DHT22;8317;52.186;5.688;2022-12-29T09:20:32;10.00;99.90
16417;DHT22;8317;52.186;5.688;2022-12-29T09:22:59;10.00;99.90
16417;DHT22;8317;52.186;5.688;2022-12-29T09:25:28;10.10;99.90
16417;DHT22;8317;52.186;5.688;2022-12-29T09:27:55;10.10;99.90
16417;DHT22;8317;52.186;5.688;2022-12-29T09:30:22;10.10;99.90
16417;DHT22;8317;52.186;5.688;2022-12-29T09:32:51;10.20;99.90
16417;DHT22;8317;52.186;5.688;2022-12-29T09:35:18;10.10;99.90
16417;DHT22;8317;52.186;5.688;2022-12-29T09:37:45;10.10;99.90
16417;DHT22;8317;52.186;5.688;2022-12-29T09:40:24;10.10;99.90
16417;DHT22;8317;52.186;5.688;2022-12-29T09:43:05;10.10;99.90
16417;DHT22;8317;52.186;5.688;2022-12-29T09:45:42;10.10;99.90
16417;DHT22;8317;52.186;5.688;2022-12-29T09:48:15;10.00;99.90
16417;DHT22;8317;52.186;5.688;2022-12-29T09:50:45;10.00;99.90
16417;DHT22;8317;52.186;5.688;2022-12-29T09:53:17;9.90;99.90
16417;DHT22;8317;52.186;5.688;2022-12-29T09:55:49;9.90;99.90
16417;DHT22;8317;52.186;5.688;2022-12-29T09:58:22;9.80;99.90
16417;DHT22;8317;52.186;5.688;2022-12-29T10:00:56;9.70;99.90
16417;DHT22;8317;52.186;5.688;2022-12-29T10:03:36;9.60;99.90
16417;DHT22;8317;52.186;5.688;2022-12-29T10:06:10;9.60;99.90
16417;DHT22;8317;52.186;5.688;2022-12-29T10:08:41;9.50;99.90
16417;DHT22;8317;52.186;5.688;2022-12-29T10:11:17;9.50;99.90
16417;DHT22;8317;52.186;5.688;2022-12-29T10:14:00;9.50;99.90
16417;DHT22;8317;52.186;5.688;2022-12-29T10:16:37;9.50;99.90
16417;DHT22;8317;52.186;5.688;2022-12-29T10:22:14;9.50;99.90
16417;DHT22;8317;52.186;5.688;2022-12-29T10:24:50;9.40;99.90
16417;DHT22;8317;52.186;5.688;2022-12-29T10:27:19;9.40;99.90
16417;DHT22;8317;52.186;5.688;2022-12-29T10:29:52;9.50;99.90
16417;DHT22;8317;52.186;5.688;2022-12-29T10:32:32;9.40;99.90
16417;DHT22;8317;52.186;5.688;2022-12-29T10:35:15;9.40;99.90
16417;DHT22;8317;52.186;5.688;2022-12-29T10:37:50;9.50;99.90
16417;DHT22;8317;52.186;5.688;2022-12-29T10:40:26;9.50;99.90
16417;DHT22;8317;52.186;5.688;2022-12-29T10:42:56;9.40;99.90
16417;DHT22;8317;52.186;5.688;2022-12-29T10:45:28;9.40;99.90
16417;DHT22;8317;52.186;5.688;2022-12-29T10:48:00;9.50;99.90
16417;DHT22;8317;52.186;5.688;2022-12-29T10:50:30;9.50;99.90
16417;DHT22;8317;52.186;5.688;2022-12-29T10:52:59;9.50;99.90
16417;DHT22;8317;52.186;5.688;2022-12-29T10:55:30;9.40;99.90
16417;DHT22;8317;52.186;5.688;2022-12-29T10:58:02;9.50;99.90
16417;DHT22;8317;52.186;5.688;2022-12-29T11:00:32;9.50;99.90
16417;DHT22;8317;52.186;5.688;2022-12-29T11:05:57;9.50;99.90
16417;DHT22;8317;52.186;5.688;2022-12-29T11:08:30;9.50;99.90
16417;DHT22;8317;52.186;5.688;2022-12-29T11:10:59;9.50;99.90
16417;DHT22;8317;52.186;5.688;2022-12-29T11:13:29;9.60;99.90
16417;DHT22;8317;52.186;5.688;2022-12-29T11:15:57;9.50;99.90
16417;DHT22;8317;52.186;5.688;2022-12-29T11:18:26;9.60;99.90
16417;DHT22;8317;52.186;5.688;2022-12-29T11:20:56;9.50;99.90
16417;DHT22;8317;52.186;5.688;2022-12-29T11:23:32;9.60;99.90
16417;DHT22;8317;52.186;5.688;2022-12-29T11:26:12;9.50;99.90
16417;DHT22;8317;52.186;5.688;2022-12-29T11:28:41;9.50;99.90
16417;DHT22;8317;52.186;5.688;2022-12-29T11:31:09;9.60;99.90
16417;DHT22;8317;52.186;5.688;2022-12-29T11:33:37;9.60;99.90
16417;DHT22;8317;52.186;5.688;2022-12-29T11:36:07;9.60;99.90
16417;DHT22;8317;52.186;5.688;2022-12-29T11:38:39;9.60;99.90
16417;DHT22;8317;52.186;5.688;2022-12-29T11:41:12;9.70;99.90
16417;DHT22;8317;52.186;5.688;2022-12-29T11:43:43;9.80;99.90
16417;DHT22;8317;52.186;5.688;2022-12-29T11:46:16;10.00;99.90
16417;DHT22;8317;52.186;5.688;2022-12-29T11:48:43;10.10;99.90
16417;DHT22;8317;52.186;5.688;2022-12-29T11:51:12;10.20;99.90
16417;DHT22;8317;52.186;5.688;2022-12-29T11:53:43;10.20;99.90
16417;DHT22;8317;52.186;5.688;2022-12-29T11:56:13;10.10;99.90
16417;DHT22;8317;52.186;5.688;2022-12-29T11:58:41;10.10;99.90
16417;DHT22;8317;52.186;5.688;2022-12-29T12:01:15;10.00;99.90
16417;DHT22;8317;52.186;5.688;2022-12-29T12:03:47;9.90;99.90
16417;DHT22;8317;52.186;5.688;2022-12-29T12:06:20;9.90;99.90
16417;DHT22;8317;52.186;5.688;2022-12-29T12:08:54;10.00;99.90
16417;DHT22;8317;52.186;5.688;2022-12-29T12:11:25;10.10;99.90
16417;DHT22;8317;52.186;5.688;2022-12-29T12:14:01;10.20;99.90
16417;DHT22;8317;52.186;5.688;2022-12-29T12:16:34;10.30;99.90
16417;DHT22;8317;52.186;5.688;2022-12-29T12:19:04;10.20;99.90
16417;DHT22;8317;52.186;5.688;2022-12-29T12:21:39;10.20;99.90
16417;DHT22;8317;52.186;5.688;2022-12-29T12:24:25;10.20;99.90
16417;DHT22;8317;52.186;5.688;2022-12-29T12:26:59;10.20;99.90
16417;DHT22;8317;52.186;5.688;2022-12-29T12:29:34;10.10;99.90
16417;DHT22;8317;52.186;5.688;2022-12-29T12:32:11;10.10;99.90
16417;DHT22;8317;52.186;5.688;2022-12-29T12:34:41;9.90;99.90
16417;DHT22;8317;52.186;5.688;2022-12-29T12:37:38;9.80;99.90
16417;DHT22;8317;52.186;5.688;2022-12-29T12:40:30;9.60;99.90
16417;DHT22;8317;52.186;5.688;2022-12-29T12:43:12;9.60;99.90
16417;DHT22;8317;52.186;5.688;2022-12-29T12:45:51;9.60;99.90
16417;DHT22;8317;52.186;5.688;2022-12-29T12:48:40;9.70;99.90
16417;DHT22;8317;52.186;5.688;2022-12-29T12:51:19;9.80;99.90
16417;DHT22;8317;52.186;5.688;2022-12-29T12:54:08;9.90;99.90
16417;DHT22;8317;52.186;5.688;2022-12-29T12:57:01;9.90;99.90
16417;DHT22;8317;52.186;5.688;2022-12-29T12:59:49;9.90;99.90
16417;DHT22;8317;52.186;5.688;2022-12-29T13:02:32;10.00;99.90
16417;DHT22;8317;52.186;5.688;2022-12-29T13:05:25;10.20;99.90
16417;DHT22;8317;52.186;5.688;2022-12-29T13:08:10;10.30;99.90
16417;DHT22;8317;52.186;5.688;2022-12-29T13:10:50;10.30;99.90
16417;DHT22;8317;52.186;5.688;2022-12-29T13:13:39;10.30;99.90
16417;DHT22;8317;52.186;5.688;2022-12-29T13:16:18;10.30;99.90
16417;DHT22;8317;52.186;5.688;2022-12-29T13:18:55;10.30;99.90
16417;DHT22;8317;52.186;5.688;2022-12-29T13:21:38;10.30;99.90
16417;DHT22;8317;52.186;5.688;2022-12-29T13:24:15;10.30;99.90
16417;DHT22;8317;52.186;5.688;2022-12-29T13:26:49;10.30;99.90
16417;DHT22;8317;52.186;5.688;2022-12-29T13:29:20;10.30;99.90
16417;DHT22;8317;52.186;5.688;2022-12-29T13:31:54;10.30;99.90
16417;DHT22;8317;52.186;5.688;2022-12-29T13:34:32;10.30;99.90
16417;DHT22;8317;52.186;5.688;2022-12-29T13:37:11;10.30;99.90
16417;DHT22;8317;52.186;5.688;2022-12-29T13:39:43;10.30;99.90
16417;DHT22;8317;52.186;5.688;2022-12-29T13:42:12;10.30;99.90
16417;DHT22;8317;52.186;5.688;2022-12-29T13:44:43;10.20;99.90
16417;DHT22;8317;52.186;5.688;2022-12-29T13:47:18;10.20;99.90
16417;DHT22;8317;52.186;5.688;2022-12-29T13:49:48;10.20;99.90
16417;DHT22;8317;52.186;5.688;2022-12-29T13:52:24;10.30;99.90
16417;DHT22;8317;52.186;5.688;2022-12-29T13:54:58;10.20;99.90
16417;DHT22;8317;52.186;5.688;2022-12-29T13:57:39;10.20;99.90
16417;DHT22;8317;52.186;5.688;2022-12-29T14:00:14;10.20;99.90
16417;DHT22;8317;52.186;5.688;2022-12-29T14:02:59;10.20;99.90
16417;DHT22;8317;52.186;5.688;2022-12-29T14:05:31;10.20;99.90
16417;DHT22;8317;52.186;5.688;2022-12-29T14:08:00;10.20;99.90
16417;DHT22;8317;52.186;5.688;2022-12-29T14:10:29;10.20;99.90
16417;DHT22;8317;52.186;5.688;2022-12-29T14:13:03;10.20;99.90
16417;DHT22;8317;52.186;5.688;2022-12-29T14:15:31;10.20;99.90
16417;DHT22;8317;52.186;5.688;2022-12-29T14:18:11;10.10;99.90
16417;DHT22;8317;52.186;5.688;2022-12-29T14:20:49;10.20;99.90
16417;DHT22;8317;52.186;5.688;2022-12-29T14:23:34;10.10;99.90
16417;DHT22;8317;52.186;5.688;2022-12-29T14:26:17;10.10;99.90
16417;DHT22;8317;52.186;5.688;2022-12-29T14:28:47;10.10;99.90
16417;DHT22;8317;52.186;5.688;2022-12-29T14:31:35;10.10;99.90
16417;DHT22;8317;52.186;5.688;2022-12-29T14:34:38;10.10;99.90
16417;DHT22;8317;52.186;5.688;2022-12-29T14:37:23;10.00;99.90
16417;DHT22;8317;52.186;5.688;2022-12-29T14:40:03;9.90;99.90
16417;DHT22;8317;52.186;5.688;2022-12-29T14:42:31;9.80;99.90
16417;DHT22;8317;52.186;5.688;2022-12-29T14:45:02;9.80;99.90
16417;DHT22;8317;52.186;5.688;2022-12-29T14:47:35;9.70;99.90
16417;DHT22;8317;52.186;5.688;2022-12-29T14:50:04;9.70;99.90
16417;DHT22;8317;52.186;5.688;2022-12-29T14:52:33;9.60;99.90
16417;DHT22;8317;52.186;5.688;2022-12-29T14:55:29;9.60;99.90
16417;DHT22;8317;52.186;5.688;2022-12-29T14:57:59;9.50;99.90
16417;DHT22;8317;52.186;5.688;2022-12-29T15:00:31;9.30;99.90
16417;DHT22;8317;52.186;5.688;2022-12-29T15:03:04;9.30;99.90
16417;DHT22;8317;52.186;5.688;2022-12-29T15:05:36;9.20;99.90
16417;DHT22;8317;52.186;5.688;2022-12-29T15:08:04;9.20;99.90
16417;DHT22;8317;52.186;5.688;2022-12-29T15:10:37;9.10;99.90
16417;DHT22;8317;52.186;5.688;2022-12-29T15:13:15;9.10;99.90
16417;DHT22;8317;52.186;5.688;2022-12-29T15:15:43;9.10;99.90
16417;DHT22;8317;52.186;5.688;2022-12-29T15:18:18;9.00;99.90
16417;DHT22;8317;52.186;5.688;2022-12-29T15:20:51;9.00;99.90
16417;DHT22;8317;52.186;5.688;2022-12-29T15:23:18;9.00;99.90
16417;DHT22;8317;52.186;5.688;2022-12-29T15:25:47;9.00;99.90
16417;DHT22;8317;52.186;5.688;2022-12-29T15:28:17;8.90;99.90
16417;DHT22;8317;52.186;5.688;2022-12-29T15:30:56;8.90;99.90
16417;DHT22;8317;52.186;5.688;2022-12-29T15:33:26;8.90;99.90
16417;DHT22;8317;52.186;5.688;2022-12-29T15:35:55;8.90;99.90
16417;DHT22;8317;52.186;5.688;2022-12-29T15:38:25;8.90;99.90
16417;DHT22;8317;52.186;5.688;2022-12-29T15:40:54;9.00;99.90
16417;DHT22;8317;52.186;5.688;2022-12-29T15:43:44;9.00;99.90
16417;DHT22;8317;52.186;5.688;2022-12-29T15:46:16;9.10;99.90
16417;DHT22;8317;52.186;5.688;2022-12-29T15:48:43;9.10;99.90
16417;DHT22;8317;52.186;5.688;2022-12-29T15:51:17;9.20;99.90
16417;DHT22;8317;52.186;5.688;2022-12-29T15:53:47;9.20;99.90
16417;DHT22;8317;52.186;5.688;2022-12-29T15:56:15;9.20;99.90
16417;DHT22;8317;52.186;5.688;2022-12-29T15:58:43;9.20;99.90
16417;DHT22;8317;52.186;5.688;2022-12-29T16:01:19;9.30;99.90
16417;DHT22;8317;52.186;5.688;2022-12-29T16:03:46;9.30;99.90
16417;DHT22;8317;52.186;5.688;2022-12-29T16:06:27;9.30;99.90
16417;DHT22;8317;52.186;5.688;2022-12-29T16:09:00;9.40;99.90
16417;DHT22;8317;52.186;5.688;2022-12-29T16:11:31;9.40;99.90
16417;DHT22;8317;52.186;5.688;2022-12-29T16:13:59;9.40;99.90
16417;DHT22;8317;52.186;5.688;2022-12-29T16:16:31;9.40;99.90
16417;DHT22;8317;52.186;5.688;2022-12-29T16:19:02;9.40;99.90
16417;DHT22;8317;52.186;5.688;2022-12-29T16:21:33;9.40;99.90
16417;DHT22;8317;52.186;5.688;2022-12-29T16:24:04;9.40;99.90
16417;DHT22;8317;52.186;5.688;2022-12-29T16:26:33;9.40;99.90
16417;DHT22;8317;52.186;5.688;2022-12-29T16:29:01;9.50;99.90